createdAt,value
2023-04-08T00:01:02.364Z,7.38
2023-04-08T00:03:29.304Z,7.28
2023-04-08T00:05:56.307Z,4.88
2023-04-08T00:08:23.229Z,4.03
2023-04-08T00:10:50.241Z,7.78
2023-04-08T00:13:17.168Z,4.75
2023-04-08T00:15:44.024Z,6.43
2023-04-08T00:18:11.111Z,13.20
2023-04-08T00:20:38.189Z,5.00
2023-04-08T00:23:05.203Z,3.85
2023-04-08T00:25:34.678Z,3.67
2023-04-08T00:28:01.681Z,4.35
2023-04-08T00:30:28.784Z,5.68
2023-04-08T00:32:55.921Z,5.43
2023-04-08T00:35:23.152Z,8.25
2023-04-08T00:37:50.127Z,8.00
2023-04-08T00:40:17.226Z,6.65
2023-04-08T00:42:44.232Z,9.35
2023-04-08T00:45:11.713Z,7.43
2023-04-08T00:47:38.570Z,10.68
2023-04-08T00:50:09.961Z,5.68
2023-04-08T00:52:37.244Z,7.78
2023-04-08T00:55:04.678Z,4.63
2023-04-08T00:57:31.786Z,5.65
2023-04-08T01:00:00.037Z,5.70
2023-04-08T01:02:39.730Z,7.20
2023-04-08T01:05:33.985Z,6.45
2023-04-08T01:08:05.825Z,4.32
2023-04-08T01:10:35.177Z,4.50
2023-04-08T01:13:10.329Z,4.05
2023-04-08T01:15:39.562Z,9.07
2023-04-08T01:18:09.992Z,5.18
2023-04-08T01:20:38.053Z,14.98
2023-04-08T01:23:44.291Z,27.98
2023-04-08T01:26:21.752Z,3.90
2023-04-08T01:28:51.680Z,4.97
2023-04-08T01:31:20.047Z,7.35
2023-04-08T01:33:49.426Z,5.90
2023-04-08T01:36:18.067Z,6.10
2023-04-08T01:38:46.445Z,7.28
2023-04-08T01:41:13.478Z,3.88
2023-04-08T01:43:42.795Z,8.48
2023-04-08T01:46:11.775Z,5.07
2023-04-08T01:48:40.353Z,4.68
2023-04-08T01:51:09.956Z,5.40
2023-04-08T01:53:38.041Z,4.72
2023-04-08T01:56:13.161Z,6.05
2023-04-08T01:58:43.096Z,3.97
2023-04-08T02:01:13.292Z,6.60
2023-04-08T02:03:44.674Z,5.43
2023-04-08T02:06:12.071Z,4.28
2023-04-08T02:08:39.106Z,5.88
2023-04-08T02:11:07.025Z,5.05
2023-04-08T02:13:34.302Z,4.15
2023-04-08T02:16:19.005Z,4.45
2023-04-08T02:18:55.644Z,4.38
2023-04-08T02:21:28.157Z,3.88
2023-04-08T02:24:06.860Z,4.43
2023-04-08T02:26:36.316Z,6.53
2023-04-08T02:29:05.989Z,7.35
2023-04-08T02:31:34.703Z,3.88
2023-04-08T02:34:02.276Z,4.28
2023-04-08T02:36:29.581Z,3.28
2023-04-08T02:38:56.423Z,5.32
2023-04-08T02:41:23.483Z,5.13
2023-04-08T02:44:02.523Z,5.15
2023-04-08T02:46:29.687Z,4.95
2023-04-08T02:49:03.875Z,4.88
2023-04-08T02:51:30.809Z,3.95
2023-04-08T02:53:57.761Z,3.38
2023-04-08T02:56:24.765Z,5.75
2023-04-08T02:58:52.441Z,3.92
2023-04-08T03:01:21.264Z,4.20
2023-04-08T03:03:48.307Z,7.22
2023-04-08T03:06:15.822Z,6.57
2023-04-08T03:08:42.993Z,4.10
2023-04-08T03:11:10.633Z,4.28
2023-04-08T03:13:37.720Z,4.75
2023-04-08T03:16:05.004Z,4.15
2023-04-08T03:18:32.439Z,4.05
2023-04-08T03:20:59.439Z,5.22
2023-04-08T03:23:26.548Z,5.25
2023-04-08T03:25:53.555Z,9.13
2023-04-08T03:28:20.660Z,5.68
2023-04-08T03:30:47.730Z,5.90
2023-04-08T03:33:14.480Z,5.72
2023-04-08T03:35:41.706Z,4.30
2023-04-08T03:38:08.909Z,7.53
2023-04-08T03:40:35.712Z,4.72
2023-04-08T03:43:02.616Z,7.95
2023-04-08T03:45:29.727Z,8.43
2023-04-08T03:47:57.366Z,5.20
2023-04-08T03:50:24.429Z,8.35
2023-04-08T03:52:51.183Z,3.88
2023-04-08T03:55:18.173Z,4.85
2023-04-08T03:57:45.973Z,5.22
2023-04-08T04:00:13.562Z,6.13
2023-04-08T04:02:40.528Z,10.35
2023-04-08T04:05:08.763Z,7.38
2023-04-08T04:07:35.641Z,5.25
2023-04-08T04:10:02.623Z,5.93
2023-04-08T04:12:30.619Z,10.85
2023-04-08T04:14:57.672Z,5.95
2023-04-08T04:17:24.770Z,4.43
2023-04-08T04:20:05.403Z,6.75
2023-04-08T04:22:32.702Z,6.63
2023-04-08T04:24:59.833Z,8.80
2023-04-08T04:27:26.793Z,5.47
2023-04-08T04:29:53.826Z,6.57
2023-04-08T04:32:20.867Z,7.22
2023-04-08T04:34:47.904Z,5.78
2023-04-08T04:37:21.689Z,4.63
2023-04-08T04:39:48.408Z,4.57
2023-04-08T04:42:15.786Z,4.45
2023-04-08T04:44:42.693Z,4.43
2023-04-08T04:47:09.729Z,5.95
2023-04-08T04:49:37.117Z,4.95
2023-04-08T04:52:05.311Z,3.88
2023-04-08T04:54:32.191Z,7.55
2023-04-08T04:56:59.440Z,5.20
2023-04-08T04:59:26.513Z,5.53
2023-04-08T05:01:53.642Z,9.43
2023-04-08T05:04:20.622Z,11.40
2023-04-08T05:06:47.505Z,5.22
2023-04-08T05:09:14.381Z,4.68
2023-04-08T05:11:41.465Z,5.60
2023-04-08T05:14:08.609Z,6.13
2023-04-08T05:16:35.552Z,5.78
2023-04-08T05:19:02.525Z,4.03
2023-04-08T05:21:29.440Z,6.07
2023-04-08T05:23:56.499Z,3.65
2023-04-08T05:26:26.600Z,5.78
2023-04-08T05:29:02.228Z,2.65
2023-04-08T05:31:29.322Z,4.90
2023-04-08T05:33:56.304Z,5.88
2023-04-08T05:36:23.363Z,5.55
2023-04-08T05:38:50.633Z,3.80
2023-04-08T05:41:18.195Z,2.50
2023-04-08T05:43:44.993Z,3.50
2023-04-08T05:46:11.786Z,3.85
2023-04-08T05:48:38.820Z,5.40
2023-04-08T05:51:05.790Z,2.92
2023-04-08T05:53:32.715Z,3.97
2023-04-08T05:55:59.602Z,2.63
2023-04-08T05:58:26.792Z,2.60
2023-04-08T06:00:55.735Z,2.72
2023-04-08T06:03:22.841Z,5.05
2023-04-08T06:05:50.125Z,2.42
2023-04-08T06:08:17.069Z,1.83
2023-04-08T06:10:51.184Z,1.98
2023-04-08T06:13:18.542Z,2.58
2023-04-08T06:15:45.288Z,2.17
2023-04-08T06:18:12.335Z,1.73
2023-04-08T06:20:39.228Z,1.75
2023-04-08T06:23:06.958Z,2.35
2023-04-08T06:25:34.292Z,4.07
2023-04-08T06:28:01.310Z,12.05
2023-04-08T06:30:28.255Z,1.45
2023-04-08T06:32:55.456Z,5.45
2023-04-08T06:35:22.550Z,3.35
2023-04-08T06:37:49.440Z,97.50
2023-04-08T06:40:16.390Z,2.28
2023-04-08T06:42:44.711Z,2.03
2023-04-08T06:45:11.743Z,4.40
2023-04-08T06:47:38.558Z,1.88
2023-04-08T06:50:06.161Z,4.35
2023-04-08T06:52:33.009Z,2.58
2023-04-08T06:54:59.872Z,4.30
2023-04-08T06:57:27.391Z,2.38
2023-04-08T06:59:54.345Z,1.58
2023-04-08T07:02:22.323Z,3.25
2023-04-08T07:04:49.760Z,2.15
2023-04-08T07:07:16.808Z,3.85
2023-04-08T07:09:46.154Z,3.47
2023-04-08T07:12:13.405Z,2.13
2023-04-08T07:14:40.613Z,1.92
2023-04-08T07:17:07.670Z,2.47
2023-04-08T07:19:34.938Z,6.03
2023-04-08T07:22:02.213Z,2.13
2023-04-08T07:24:28.961Z,8.80
2023-04-08T07:26:57.142Z,5.85
2023-04-08T07:29:24.144Z,3.17
2023-04-08T07:31:52.722Z,1.88
2023-04-08T07:34:20.229Z,1.50
2023-04-08T07:36:47.087Z,1.73
2023-04-08T07:39:14.087Z,2.38
2023-04-08T07:41:41.092Z,2.15
2023-04-08T07:44:08.815Z,5.13
2023-04-08T07:46:39.683Z,3.25
2023-04-08T07:49:06.859Z,2.22
2023-04-08T07:51:33.811Z,5.90
2023-04-08T07:54:00.727Z,6.88
2023-04-08T07:56:27.600Z,2.13
2023-04-08T07:58:55.119Z,2.30
2023-04-08T08:01:23.266Z,1.67
2023-04-08T08:03:52.354Z,13.25
2023-04-08T08:06:20.091Z,2.95
2023-04-08T08:08:47.332Z,2.25
2023-04-08T08:11:14.365Z,5.93
2023-04-08T08:13:41.470Z,2.03
2023-04-08T08:16:11.590Z,12.98
2023-04-08T08:18:40.607Z,4.13
2023-04-08T08:21:08.484Z,3.95
2023-04-08T08:23:35.447Z,1.70
2023-04-08T08:26:10.293Z,1.65
2023-04-08T08:31:06.433Z,5.70
2023-04-08T08:33:33.717Z,2.22
2023-04-08T08:36:00.950Z,4.25
2023-04-08T08:38:28.163Z,3.30
2023-04-08T08:40:57.788Z,1.95
2023-04-08T08:43:25.796Z,3.90
2023-04-08T08:45:52.825Z,2.97
2023-04-08T08:48:20.008Z,5.63
2023-04-08T08:50:46.781Z,3.10
2023-04-08T08:53:13.741Z,3.53
2023-04-08T08:56:05.781Z,9.68
2023-04-08T08:58:28.767Z,6.60
2023-04-08T09:00:56.128Z,2.78
2023-04-08T09:03:28.445Z,5.30
2023-04-08T09:06:03.950Z,7.57
2023-04-08T09:11:16.623Z,6.57
2023-04-08T09:13:45.419Z,3.53
2023-04-08T09:16:15.313Z,3.05
2023-04-08T09:18:44.798Z,2.15
2023-04-08T09:21:13.484Z,3.50
2023-04-08T09:23:44.291Z,6.40
2023-04-08T09:26:13.803Z,3.58
2023-04-08T09:28:42.143Z,1.10
2023-04-08T09:31:23.499Z,3.30
2023-04-08T09:33:53.618Z,3.40
2023-04-08T09:36:20.513Z,1.45
2023-04-08T09:38:48.226Z,2.45
2023-04-08T09:41:16.861Z,3.25
2023-04-08T09:43:51.901Z,2.50
2023-04-08T09:46:25.991Z,6.95
2023-04-08T09:48:59.512Z,2.08
2023-04-08T09:51:34.280Z,0.57
2023-04-08T09:54:03.860Z,5.43
2023-04-08T09:56:44.012Z,2.42
2023-04-08T09:59:24.176Z,3.83
2023-04-08T10:01:54.499Z,3.15
2023-04-08T10:04:36.696Z,9.70
2023-04-08T10:07:07.094Z,6.32
2023-04-08T10:09:34.928Z,10.90
2023-04-08T10:12:03.441Z,2.30
2023-04-08T10:14:30.514Z,1.60
2023-04-08T10:17:28.942Z,8.38
2023-04-08T10:19:55.799Z,2.35
2023-04-08T10:22:28.747Z,12.82
2023-04-08T10:25:17.528Z,1.38
2023-04-08T10:27:45.664Z,4.60
2023-04-08T10:30:27.526Z,3.22
2023-04-08T10:33:00.048Z,3.00
2023-04-08T10:35:36.765Z,2.17
2023-04-08T10:38:04.059Z,1.33
2023-04-08T10:40:39.696Z,1.10
2023-04-08T10:43:06.670Z,1.05
2023-04-08T10:45:34.221Z,11.75
2023-04-08T10:48:29.161Z,4.88
2023-04-08T10:51:00.446Z,0.97
2023-04-08T10:53:37.128Z,2.20
2023-04-08T10:56:08.850Z,2.45
2023-04-08T10:58:39.612Z,3.80
2023-04-08T11:01:10.277Z,3.60
2023-04-08T11:03:37.535Z,0.63
2023-04-08T11:06:05.073Z,8.73
2023-04-08T11:08:33.436Z,5.45
2023-04-08T11:11:02.302Z,10.38
2023-04-08T11:13:29.516Z,3.40
2023-04-08T11:15:58.563Z,4.22
2023-04-08T11:18:26.209Z,2.95
2023-04-08T11:20:54.082Z,8.68
2023-04-08T11:23:22.995Z,4.95
2023-04-08T11:25:51.001Z,0.80
2023-04-08T11:28:18.362Z,1.02
2023-04-08T11:30:46.245Z,2.65
2023-04-08T11:33:13.729Z,0.60
2023-04-08T11:35:42.130Z,7.18
2023-04-08T11:38:10.048Z,0.43
2023-04-08T11:40:37.108Z,0.98
2023-04-08T11:43:15.736Z,4.22
2023-04-08T11:45:43.014Z,4.45
2023-04-08T11:48:14.810Z,2.67
2023-04-08T11:50:42.902Z,2.15
2023-04-08T11:53:20.907Z,2.72
2023-04-08T11:55:49.114Z,2.85
2023-04-08T11:58:16.557Z,0.57
2023-04-08T12:00:44.645Z,2.97
2023-04-08T12:03:12.423Z,0.50
2023-04-08T12:05:39.744Z,3.55
2023-04-08T12:08:06.967Z,3.53
2023-04-08T12:10:33.741Z,3.03
2023-04-08T12:13:01.746Z,1.20
2023-04-08T12:15:28.816Z,4.63
2023-04-08T12:18:00.622Z,0.45
2023-04-08T12:20:27.664Z,2.00
2023-04-08T12:22:54.701Z,2.25
2023-04-08T12:25:21.743Z,0.57
2023-04-08T12:27:48.758Z,1.15
2023-04-08T12:30:16.647Z,2.78
2023-04-08T12:32:46.122Z,3.75
2023-04-08T12:35:13.165Z,1.05
2023-04-08T12:37:40.144Z,4.20
2023-04-08T12:40:07.663Z,3.72
2023-04-08T12:42:35.316Z,1.73
2023-04-08T12:45:02.829Z,5.45
2023-04-08T12:47:29.675Z,1.98
2023-04-08T12:49:56.567Z,1.58
2023-04-08T12:52:24.255Z,1.55
2023-04-08T12:54:51.181Z,2.58
2023-04-08T12:57:18.213Z,2.70
2023-04-08T12:59:45.204Z,0.85
2023-04-08T13:02:12.160Z,3.70
2023-04-08T13:04:39.088Z,1.23
2023-04-08T13:07:07.723Z,1.10
2023-04-08T13:09:34.970Z,1.10
2023-04-08T13:12:01.753Z,2.05
2023-04-08T13:14:29.215Z,3.17
2023-04-08T13:16:56.169Z,8.43
2023-04-08T13:19:23.130Z,1.27
2023-04-08T13:21:49.876Z,1.48
2023-04-08T13:24:17.096Z,1.05
2023-04-08T13:26:43.873Z,1.05
2023-04-08T13:29:11.128Z,1.05
2023-04-08T13:31:38.143Z,2.17
2023-04-08T13:34:04.832Z,3.45
2023-04-08T13:36:32.448Z,1.75
2023-04-08T13:38:59.229Z,3.03
2023-04-08T13:41:26.296Z,1.50
2023-04-08T13:43:53.838Z,4.55
2023-04-08T13:46:20.759Z,1.00
2023-04-08T13:48:47.829Z,0.65
2023-04-08T13:51:14.902Z,2.72
2023-04-08T13:53:41.928Z,1.02
2023-04-08T13:56:08.966Z,0.93
2023-04-08T13:58:37.708Z,2.45
2023-04-08T14:01:04.894Z,0.73
2023-04-08T14:03:31.895Z,0.95
2023-04-08T14:06:01.585Z,2.80
2023-04-08T14:08:28.838Z,3.05
2023-04-08T14:10:56.945Z,0.52
2023-04-08T14:13:24.366Z,1.50
2023-04-08T14:15:53.832Z,1.48
2023-04-08T14:18:20.909Z,3.05
2023-04-08T14:20:47.684Z,1.00
2023-04-08T14:23:15.101Z,0.73
2023-04-08T14:25:42.012Z,1.08
2023-04-08T14:28:08.871Z,0.77
2023-04-08T14:30:37.871Z,0.80
2023-04-08T14:33:07.834Z,1.23
2023-04-08T14:35:35.062Z,0.95
2023-04-08T14:38:02.035Z,1.10
2023-04-08T14:40:28.862Z,0.85
2023-04-08T14:42:55.972Z,1.23
2023-04-08T14:45:22.821Z,2.03
2023-04-08T14:47:49.648Z,1.45
2023-04-08T14:50:17.060Z,1.92
2023-04-08T14:52:45.471Z,1.33
2023-04-08T14:55:12.403Z,3.47
2023-04-08T14:57:39.244Z,0.98
2023-04-08T15:00:07.624Z,6.50
2023-04-08T15:02:34.708Z,1.05
2023-04-08T15:05:01.621Z,1.50
2023-04-08T15:07:28.733Z,1.73
2023-04-08T15:09:56.652Z,2.90
2023-04-08T15:12:24.544Z,0.73
2023-04-08T15:14:51.366Z,2.95
2023-04-08T15:17:18.281Z,0.90
2023-04-08T15:19:45.320Z,0.65
2023-04-08T15:22:12.985Z,0.60
2023-04-08T15:24:39.952Z,2.70
2023-04-08T15:27:07.915Z,1.77
2023-04-08T15:29:34.656Z,1.05
2023-04-08T15:32:01.587Z,0.60
2023-04-08T15:34:28.643Z,3.33
2023-04-08T15:36:58.625Z,2.00
2023-04-08T15:39:25.721Z,1.23
2023-04-08T15:41:52.759Z,2.80
2023-04-08T15:44:19.818Z,1.35
2023-04-08T15:46:46.819Z,0.63
2023-04-08T15:49:13.760Z,1.55
2023-04-08T15:51:44.461Z,3.30
2023-04-08T15:54:12.084Z,1.00
2023-04-08T15:56:38.976Z,1.05
2023-04-08T15:59:05.864Z,1.48
2023-04-08T16:01:33.498Z,1.67
2023-04-08T16:04:01.339Z,2.65
2023-04-08T16:06:28.590Z,2.22
2023-04-08T16:08:56.905Z,1.45
2023-04-08T16:11:25.387Z,1.20
2023-04-08T16:13:53.001Z,2.35
2023-04-08T16:16:20.076Z,2.92
2023-04-08T16:21:34.245Z,18.17
2023-04-08T16:24:01.748Z,8.18
2023-04-08T16:26:29.013Z,3.17
2023-04-08T16:28:55.977Z,10.73
2023-04-08T16:31:22.955Z,6.03
2023-04-08T16:33:50.056Z,22.50
2023-04-08T16:36:17.349Z,41.50
2023-04-08T16:38:44.376Z,25.92
2023-04-08T16:41:11.543Z,14.50
2023-04-08T16:43:38.456Z,23.17
2023-04-08T16:46:13.129Z,25.95
2023-04-08T16:48:41.402Z,6.82
2023-04-08T16:51:08.443Z,29.98
2023-04-08T16:53:35.936Z,26.40
2023-04-08T16:56:02.924Z,29.42
2023-04-08T16:58:29.928Z,61.58
2023-04-08T17:00:56.754Z,34.40
2023-04-08T17:03:23.799Z,42.10
2023-04-08T17:05:50.801Z,33.35
2023-04-08T17:08:18.922Z,6.22
2023-04-08T17:10:45.999Z,14.05
2023-04-08T17:13:14.776Z,37.25
2023-04-08T17:15:41.936Z,8.80
2023-04-08T17:18:08.841Z,9.50
2023-04-08T17:20:36.222Z,19.42
2023-04-08T17:23:03.031Z,13.02
2023-04-08T17:25:29.798Z,24.42
2023-04-08T17:27:56.859Z,8.73
2023-04-08T17:30:23.770Z,34.30
2023-04-08T17:32:50.799Z,52.50
2023-04-08T17:35:17.792Z,31.75
2023-04-08T17:37:44.553Z,37.45
2023-04-08T17:40:11.660Z,9.85
2023-04-08T17:42:38.512Z,11.85
2023-04-08T17:45:06.063Z,17.48
2023-04-08T17:47:32.920Z,20.17
2023-04-08T17:49:59.683Z,15.98
2023-04-08T17:52:26.945Z,31.23
2023-04-08T17:54:54.260Z,27.73
2023-04-08T17:57:21.184Z,25.88
2023-04-08T17:59:47.848Z,28.80
2023-04-08T18:02:14.917Z,27.88
2023-04-08T18:04:42.537Z,49.00
2023-04-08T18:07:09.482Z,39.03
2023-04-08T18:09:36.532Z,42.35
2023-04-08T18:12:03.321Z,53.00
2023-04-08T18:14:30.273Z,71.53
2023-04-08T18:16:57.035Z,59.75
2023-04-08T18:19:26.518Z,50.13
2023-04-08T18:21:53.551Z,27.67
2023-04-08T18:24:21.528Z,71.57
2023-04-08T18:26:57.766Z,27.63
2023-04-08T18:29:30.885Z,117.28
2023-04-08T18:31:57.546Z,74.45
2023-04-08T18:34:24.882Z,69.40
2023-04-08T18:36:51.747Z,57.72
2023-04-08T18:39:18.888Z,72.22
2023-04-08T18:41:45.925Z,52.70
2023-04-08T18:44:13.273Z,57.17
2023-04-08T18:46:40.223Z,70.70
2023-04-08T18:49:07.367Z,53.45
2023-04-08T18:51:34.312Z,80.05
2023-04-08T18:54:01.543Z,68.38
2023-04-08T18:56:28.439Z,59.70
2023-04-08T18:58:55.308Z,58.00
2023-04-08T19:01:22.326Z,44.38
2023-04-08T19:03:49.576Z,70.68
2023-04-08T19:06:17.573Z,59.92
2023-04-08T19:08:45.533Z,82.18
2023-04-08T19:11:14.025Z,81.05
2023-04-08T19:13:41.940Z,80.72
2023-04-08T19:16:08.866Z,45.28
2023-04-08T19:18:35.974Z,54.50
2023-04-08T19:21:03.605Z,15.27
2023-04-08T19:23:30.804Z,37.40
2023-04-08T19:25:57.559Z,73.88
2023-04-08T19:28:24.553Z,30.73
2023-04-08T19:30:51.642Z,35.63
2023-04-08T19:33:18.465Z,32.20
2023-04-08T19:35:45.509Z,43.90
2023-04-08T19:38:12.854Z,62.17
2023-04-08T19:40:40.585Z,36.65
2023-04-08T19:43:07.472Z,80.35
2023-04-08T19:45:34.486Z,37.08
2023-04-08T19:48:01.541Z,23.60
2023-04-08T19:50:28.389Z,32.10
2023-04-08T19:52:55.203Z,50.83
2023-04-08T19:55:22.321Z,55.17
2023-04-08T19:57:49.203Z,30.65
2023-04-08T20:00:16.373Z,37.85
2023-04-08T20:02:44.086Z,38.75
2023-04-08T20:05:16.450Z,47.15
2023-04-08T20:07:44.095Z,55.03
2023-04-08T20:10:12.542Z,13.75
2023-04-08T20:12:41.003Z,54.33
2023-04-08T20:15:23.743Z,54.70
2023-04-08T20:17:51.546Z,57.08
2023-04-08T20:20:18.662Z,55.97
2023-04-08T20:22:46.659Z,29.23
2023-04-08T20:25:13.827Z,19.98
2023-04-08T20:27:41.531Z,11.00
2023-04-08T20:30:09.507Z,22.40
2023-04-08T20:32:38.017Z,19.90
2023-04-08T20:35:05.496Z,16.15
2023-04-08T20:37:33.524Z,16.83
2023-04-08T20:40:03.307Z,41.60
2023-04-08T20:42:30.299Z,19.30
2023-04-08T20:44:57.287Z,23.67
2023-04-08T20:47:25.029Z,45.08
2023-04-08T20:49:52.440Z,37.67
2023-04-08T20:52:20.739Z,17.17
2023-04-08T20:54:47.689Z,33.20
2023-04-08T20:57:14.622Z,50.75
2023-04-08T20:59:41.555Z,51.00
2023-04-08T21:02:10.932Z,33.97
2023-04-08T21:04:37.984Z,42.53
2023-04-08T21:07:04.844Z,26.98
2023-04-08T21:09:31.820Z,45.65
2023-04-08T21:11:58.663Z,29.85
2023-04-08T21:14:25.594Z,21.15
2023-04-08T21:16:52.641Z,27.35
2023-04-08T21:19:19.492Z,30.77
2023-04-08T21:21:46.837Z,28.08
2023-04-08T21:24:13.810Z,24.75
2023-04-08T21:26:40.877Z,18.33
2023-04-08T21:29:07.897Z,12.45
2023-04-08T21:31:34.967Z,11.25
2023-04-08T21:34:01.785Z,20.67
2023-04-08T21:36:28.801Z,21.17
2023-04-08T21:38:57.097Z,15.90
2023-04-08T21:41:24.595Z,28.45
2023-04-08T21:43:51.590Z,12.65
2023-04-08T21:46:18.694Z,9.52
2023-04-08T21:48:46.011Z,18.70
2023-04-08T21:51:17.264Z,12.25
2023-04-08T21:53:44.922Z,20.92
2023-04-08T21:56:12.826Z,12.75
2023-04-08T21:58:40.358Z,14.10
2023-04-08T22:01:07.939Z,17.45
2023-04-08T22:03:35.028Z,13.63
2023-04-08T22:06:02.302Z,33.92
2023-04-08T22:08:29.273Z,18.17
2023-04-08T22:10:56.128Z,11.57
2023-04-08T22:13:23.137Z,15.55
2023-04-08T22:15:51.137Z,11.82
2023-04-08T22:18:20.671Z,13.23
2023-04-08T22:20:47.662Z,11.45
2023-04-08T22:23:14.944Z,20.23
2023-04-08T22:25:41.903Z,53.10
2023-04-08T22:28:08.869Z,16.50
2023-04-08T22:30:36.574Z,13.27
2023-04-08T22:33:03.669Z,14.73
2023-04-08T22:35:30.764Z,13.73
2023-04-08T22:37:57.743Z,11.50
2023-04-08T22:40:24.736Z,39.35
2023-04-08T22:42:51.648Z,39.35
2023-04-08T22:45:18.586Z,37.60
2023-04-08T22:47:45.656Z,22.42
2023-04-08T22:50:12.757Z,26.80
2023-04-08T22:52:40.132Z,11.32
2023-04-08T22:55:07.570Z,19.00
2023-04-08T22:57:34.907Z,25.13
2023-04-08T23:00:03.837Z,20.90
2023-04-08T23:02:31.733Z,14.57
2023-04-08T23:04:58.736Z,23.35
2023-04-08T23:07:25.687Z,14.23
2023-04-08T23:09:52.572Z,29.83
2023-04-08T23:12:19.967Z,10.80
2023-04-08T23:14:47.194Z,13.68
2023-04-08T23:17:14.069Z,20.17
2023-04-08T23:19:42.621Z,21.25
2023-04-08T23:22:12.539Z,19.58
2023-04-08T23:24:39.616Z,16.23
2023-04-08T23:27:06.845Z,15.75
2023-04-08T23:29:33.768Z,11.25
2023-04-08T23:32:00.905Z,11.88
2023-04-08T23:34:27.898Z,17.45
2023-04-08T23:36:54.966Z,17.95
2023-04-08T23:39:21.991Z,23.33
2023-04-08T23:41:48.792Z,27.85
2023-04-08T23:44:15.747Z,17.55
2023-04-08T23:46:42.765Z,24.05
2023-04-08T23:49:09.641Z,20.73
2023-04-08T23:51:39.013Z,7.65
2023-04-08T23:54:06.134Z,8.60
2023-04-08T23:56:33.243Z,12.02
2023-04-08T23:59:00.203Z,15.68
